createdAt,value
2018-02-03T00:00:50.000Z,30
2018-02-03T00:02:50.000Z,30
2018-02-03T00:03:50.000Z,30
2018-02-03T00:04:50.000Z,30
2018-02-03T00:05:50.000Z,30
2018-02-03T00:06:50.000Z,30
2018-02-03T00:07:50.000Z,30
2018-02-03T00:09:50.000Z,29
2018-02-03T00:10:50.000Z,30
2018-02-03T00:12:50.000Z,30
2018-02-03T00:13:50.000Z,30
2018-02-03T00:14:50.000Z,30
2018-02-03T00:15:50.000Z,30
2018-02-03T00:16:50.000Z,30
2018-02-03T00:18:50.000Z,30
2018-02-03T00:19:50.000Z,30
2018-02-03T00:20:50.000Z,30
2018-02-03T00:21:50.000Z,30
2018-02-03T00:22:50.000Z,30
2018-02-03T00:23:50.000Z,30
2018-02-03T00:24:50.000Z,30
2018-02-03T00:25:50.000Z,30
2018-02-03T00:26:50.000Z,30
2018-02-03T00:27:50.000Z,30
2018-02-03T00:28:50.000Z,30
2018-02-03T00:29:50.000Z,30
2018-02-03T00:30:50.000Z,30
2018-02-03T00:31:50.000Z,30
2018-02-03T00:32:50.000Z,30
2018-02-03T00:33:50.000Z,29
2018-02-03T00:34:50.000Z,30
2018-02-03T00:35:50.000Z,30
2018-02-03T00:36:50.000Z,30
2018-02-03T00:37:50.000Z,30
2018-02-03T00:38:50.000Z,30
2018-02-03T00:39:50.000Z,29
2018-02-03T00:40:50.000Z,29
2018-02-03T00:41:50.000Z,29
2018-02-03T00:42:50.000Z,29
2018-02-03T00:43:50.000Z,30
2018-02-03T00:45:50.000Z,29
2018-02-03T00:47:50.000Z,29
2018-02-03T00:48:50.000Z,30
2018-02-03T00:49:50.000Z,30
2018-02-03T00:50:50.000Z,30
2018-02-03T00:51:50.000Z,30
2018-02-03T00:52:50.000Z,30
2018-02-03T00:53:50.000Z,30
2018-02-03T00:54:50.000Z,30
2018-02-03T00:55:50.000Z,30
2018-02-03T00:56:50.000Z,30
2018-02-03T00:57:50.000Z,30
2018-02-03T00:58:50.000Z,30
2018-02-03T00:59:50.000Z,30
2018-02-03T01:00:50.000Z,30
2018-02-03T01:02:50.000Z,30
2018-02-03T01:03:50.000Z,30
2018-02-03T01:04:50.000Z,30
2018-02-03T01:05:50.000Z,30
2018-02-03T01:06:50.000Z,30
2018-02-03T01:07:50.000Z,30
2018-02-03T01:08:50.000Z,30
2018-02-03T01:09:50.000Z,30
2018-02-03T01:10:50.000Z,30
2018-02-03T01:11:50.000Z,30
2018-02-03T01:12:50.000Z,30
2018-02-03T01:13:50.000Z,30
2018-02-03T01:14:50.000Z,30
2018-02-03T01:15:50.000Z,30
2018-02-03T01:16:50.000Z,30
2018-02-03T01:17:50.000Z,30
2018-02-03T01:18:50.000Z,30
2018-02-03T01:20:50.000Z,29
2018-02-03T01:21:50.000Z,30
2018-02-03T01:22:50.000Z,30
2018-02-03T01:23:50.000Z,30
2018-02-03T01:24:50.000Z,30
2018-02-03T01:25:50.000Z,30
2018-02-03T01:26:50.000Z,30
2018-02-03T01:27:50.000Z,29
2018-02-03T01:29:50.000Z,29
2018-02-03T01:30:50.000Z,30
2018-02-03T02:08:24.000Z,32
2018-02-03T02:09:24.000Z,32
2018-02-03T02:10:24.000Z,32
2018-02-03T02:11:24.000Z,32
2018-02-03T02:12:24.000Z,32
2018-02-03T02:13:24.000Z,32
2018-02-03T02:15:24.000Z,31
2018-02-03T02:16:24.000Z,31
2018-02-03T02:17:24.000Z,31
2018-02-03T02:18:24.000Z,31
2018-02-03T02:19:24.000Z,31
2018-02-03T02:20:24.000Z,31
2018-02-03T02:21:24.000Z,31
2018-02-03T02:23:24.000Z,31
2018-02-03T02:24:24.000Z,31
2018-02-03T02:25:24.000Z,31
2018-02-03T02:26:24.000Z,31
2018-02-03T02:27:24.000Z,31
2018-02-03T02:28:24.000Z,31
2018-02-03T02:29:24.000Z,31
2018-02-03T02:30:24.000Z,31
2018-02-03T02:31:24.000Z,30
2018-02-03T02:32:24.000Z,31
2018-02-03T02:33:24.000Z,30
2018-02-03T02:34:24.000Z,30
2018-02-03T02:35:24.000Z,30
2018-02-03T02:36:24.000Z,30
2018-02-03T02:37:24.000Z,30
2018-02-03T02:38:24.000Z,30
2018-02-03T02:40:24.000Z,30
2018-02-03T02:41:24.000Z,30
2018-02-03T02:42:24.000Z,30
2018-02-03T02:44:24.000Z,30
2018-02-03T02:45:24.000Z,30
2018-02-03T02:46:24.000Z,30
2018-02-03T02:47:24.000Z,30
2018-02-03T02:48:24.000Z,30
2018-02-03T02:49:24.000Z,30
2018-02-03T02:50:24.000Z,30
2018-02-03T02:51:24.000Z,30
2018-02-03T02:52:24.000Z,30
2018-02-03T02:53:24.000Z,30
2018-02-03T02:54:24.000Z,30
2018-02-03T02:55:24.000Z,30
2018-02-03T02:56:24.000Z,30
2018-02-03T02:57:24.000Z,30
2018-02-03T02:58:24.000Z,30
2018-02-03T02:59:24.000Z,30
2018-02-03T03:00:24.000Z,30
2018-02-03T03:01:24.000Z,30
2018-02-03T03:02:24.000Z,30
2018-02-03T03:03:24.000Z,30
2018-02-03T03:04:24.000Z,30
2018-02-03T03:05:24.000Z,30
2018-02-03T03:06:24.000Z,30
2018-02-03T03:08:24.000Z,30
2018-02-03T03:09:24.000Z,30
2018-02-03T03:10:24.000Z,30
2018-02-03T03:11:24.000Z,30
2018-02-03T03:12:24.000Z,30
2018-02-03T03:13:24.000Z,30
2018-02-03T03:15:24.000Z,30
2018-02-03T03:17:24.000Z,30
2018-02-03T03:18:24.000Z,30
2018-02-03T03:19:24.000Z,30
2018-02-03T03:20:24.000Z,30
2018-02-03T03:21:24.000Z,30
2018-02-03T03:22:24.000Z,30
2018-02-03T03:23:24.000Z,30
2018-02-03T03:25:24.000Z,30
2018-02-03T03:26:24.000Z,30
2018-02-03T03:28:24.000Z,30
2018-02-03T03:29:24.000Z,30
2018-02-03T03:30:24.000Z,30
2018-02-03T03:31:24.000Z,30
2018-02-03T03:33:24.000Z,30
2018-02-03T03:34:24.000Z,30
2018-02-03T03:35:24.000Z,30
2018-02-03T03:36:24.000Z,30
2018-02-03T03:37:24.000Z,30
2018-02-03T03:38:24.000Z,30
2018-02-03T03:39:24.000Z,30
2018-02-03T03:40:24.000Z,30
2018-02-03T03:41:24.000Z,30
2018-02-03T03:42:24.000Z,30
2018-02-03T03:43:24.000Z,30
2018-02-03T03:44:24.000Z,30
2018-02-03T03:45:24.000Z,30
2018-02-03T03:47:24.000Z,30
2018-02-03T03:48:24.000Z,30
2018-02-03T03:49:24.000Z,30
2018-02-03T03:51:24.000Z,30
2018-02-03T03:52:24.000Z,30
2018-02-03T03:53:24.000Z,30
2018-02-03T03:55:24.000Z,30
2018-02-03T03:56:24.000Z,30
2018-02-03T03:57:24.000Z,30
2018-02-03T03:58:24.000Z,30
2018-02-03T03:59:24.000Z,30
2018-02-03T04:00:24.000Z,30
2018-02-03T04:01:24.000Z,30
2018-02-03T04:02:24.000Z,30
2018-02-03T04:03:24.000Z,30
2018-02-03T04:04:24.000Z,30
2018-02-03T04:05:24.000Z,30
2018-02-03T04:06:24.000Z,30
2018-02-03T04:07:24.000Z,30
2018-02-03T04:08:24.000Z,30
2018-02-03T04:09:24.000Z,30
2018-02-03T04:10:24.000Z,30
2018-02-03T04:11:24.000Z,30
2018-02-03T04:12:24.000Z,30
2018-02-03T04:13:24.000Z,30
2018-02-03T04:15:24.000Z,29
2018-02-03T04:16:24.000Z,30
2018-02-03T04:17:24.000Z,30
2018-02-03T04:18:24.000Z,30
2018-02-03T04:19:24.000Z,30
2018-02-03T04:20:24.000Z,30
2018-02-03T04:21:24.000Z,30
2018-02-03T04:22:24.000Z,30
2018-02-03T04:23:24.000Z,30
2018-02-03T04:24:24.000Z,30
2018-02-03T04:26:24.000Z,30
2018-02-03T04:27:24.000Z,30
2018-02-03T04:29:24.000Z,30
2018-02-03T04:30:24.000Z,30
2018-02-03T04:31:24.000Z,30
2018-02-03T04:32:24.000Z,30
2018-02-03T04:33:24.000Z,30
2018-02-03T04:34:24.000Z,30
2018-02-03T04:35:24.000Z,30
2018-02-03T04:36:24.000Z,30
2018-02-03T04:37:24.000Z,30
2018-02-03T04:38:24.000Z,30
2018-02-03T04:39:24.000Z,30
2018-02-03T04:40:24.000Z,30
2018-02-03T04:41:24.000Z,30
2018-02-03T04:42:24.000Z,29
2018-02-03T04:43:24.000Z,30
2018-02-03T04:44:24.000Z,30
2018-02-03T04:45:24.000Z,30
2018-02-03T04:46:24.000Z,30
2018-02-03T04:47:24.000Z,30
2018-02-03T04:49:24.000Z,29
2018-02-03T04:50:24.000Z,30
2018-02-03T04:51:24.000Z,30
2018-02-03T04:52:24.000Z,30
2018-02-03T04:54:25.000Z,30
2018-02-03T04:55:25.000Z,30
2018-02-03T04:56:25.000Z,30
2018-02-03T04:57:25.000Z,30
2018-02-03T04:58:25.000Z,30
2018-02-03T04:59:25.000Z,30
2018-02-03T05:00:25.000Z,30
2018-02-03T05:01:25.000Z,30
2018-02-03T05:02:25.000Z,30
2018-02-03T05:03:25.000Z,30
2018-02-03T05:04:25.000Z,30
2018-02-03T05:05:25.000Z,30
2018-02-03T05:06:25.000Z,30
2018-02-03T05:07:25.000Z,30
2018-02-03T05:09:25.000Z,30
2018-02-03T05:10:25.000Z,30
2018-02-03T05:11:25.000Z,30
2018-02-03T05:12:25.000Z,30
2018-02-03T05:13:25.000Z,30
2018-02-03T05:15:25.000Z,30
2018-02-03T05:16:25.000Z,30
2018-02-03T05:18:25.000Z,30
2018-02-03T05:19:25.000Z,30
2018-02-03T05:20:25.000Z,30
2018-02-03T05:21:25.000Z,30
2018-02-03T05:22:25.000Z,30
2018-02-03T05:23:25.000Z,30
2018-02-03T05:24:25.000Z,30
2018-02-03T05:25:25.000Z,30
2018-02-03T05:27:25.000Z,30
2018-02-03T05:28:25.000Z,30
2018-02-03T05:29:25.000Z,30
2018-02-03T05:30:25.000Z,30
2018-02-03T05:31:25.000Z,30
2018-02-03T05:33:25.000Z,29
2018-02-03T05:35:25.000Z,29
2018-02-03T05:36:25.000Z,30
2018-02-03T05:37:25.000Z,30
2018-02-03T05:38:25.000Z,30
2018-02-03T05:39:25.000Z,30
2018-02-03T05:40:25.000Z,30
2018-02-03T05:41:25.000Z,30
2018-02-03T05:42:25.000Z,30
2018-02-03T05:43:25.000Z,30
2018-02-03T05:44:25.000Z,30
2018-02-03T05:45:25.000Z,30
2018-02-03T05:46:25.000Z,30
2018-02-03T05:47:25.000Z,30
2018-02-03T05:48:25.000Z,30
2018-02-03T05:49:25.000Z,30
2018-02-03T05:50:25.000Z,30
2018-02-03T05:51:25.000Z,30
2018-02-03T05:52:25.000Z,29
2018-02-03T05:53:25.000Z,29
2018-02-03T05:54:25.000Z,29
2018-02-03T05:55:25.000Z,29
2018-02-03T05:56:25.000Z,29
2018-02-03T05:57:25.000Z,29
2018-02-03T05:58:25.000Z,29
2018-02-03T05:59:25.000Z,29
2018-02-03T06:00:25.000Z,29
2018-02-03T06:01:25.000Z,29
2018-02-03T06:02:25.000Z,29
2018-02-03T06:03:25.000Z,29
2018-02-03T06:04:25.000Z,29
2018-02-03T06:05:25.000Z,29
2018-02-03T06:06:25.000Z,29
2018-02-03T06:07:25.000Z,29
2018-02-03T06:08:25.000Z,29
2018-02-03T06:10:25.000Z,29
2018-02-03T06:11:25.000Z,29
2018-02-03T06:12:25.000Z,29
2018-02-03T06:13:25.000Z,29
2018-02-03T06:14:25.000Z,29
2018-02-03T06:15:25.000Z,29
2018-02-03T06:16:25.000Z,29
2018-02-03T06:17:25.000Z,30
2018-02-03T06:18:25.000Z,30
2018-02-03T06:19:25.000Z,29
2018-02-03T06:20:25.000Z,30
2018-02-03T06:21:25.000Z,29
2018-02-03T06:22:25.000Z,29
2018-02-03T06:23:25.000Z,29
2018-02-03T06:24:25.000Z,30
2018-02-03T06:25:25.000Z,29
2018-02-03T06:26:25.000Z,30
2018-02-03T06:27:25.000Z,29
2018-02-03T06:28:25.000Z,30
2018-02-03T06:29:25.000Z,30
2018-02-03T06:30:25.000Z,29
2018-02-03T06:31:25.000Z,30
2018-02-03T06:32:25.000Z,30
2018-02-03T06:33:25.000Z,29
2018-02-03T06:34:25.000Z,29
2018-02-03T06:35:25.000Z,29
2018-02-03T06:36:25.000Z,29
2018-02-03T06:37:25.000Z,30
2018-02-03T06:38:25.000Z,30
2018-02-03T06:39:25.000Z,29
2018-02-03T06:40:25.000Z,29
2018-02-03T06:41:25.000Z,29
2018-02-03T06:42:25.000Z,29
2018-02-03T06:43:25.000Z,30
2018-02-03T06:45:25.000Z,29
2018-02-03T06:46:25.000Z,29
2018-02-03T06:47:25.000Z,29
2018-02-03T06:48:25.000Z,29
2018-02-03T06:49:25.000Z,29
2018-02-03T06:51:25.000Z,29
2018-02-03T06:52:25.000Z,29
2018-02-03T06:53:25.000Z,29
2018-02-03T06:55:25.000Z,29
2018-02-03T06:56:25.000Z,29
2018-02-03T06:57:25.000Z,29
2018-02-03T06:58:25.000Z,29
2018-02-03T06:59:25.000Z,29
2018-02-03T07:00:25.000Z,29
2018-02-03T07:01:25.000Z,29
2018-02-03T07:02:24.000Z,29
2018-02-03T07:03:24.000Z,29
2018-02-03T07:04:24.000Z,29
2018-02-03T07:05:24.000Z,29
2018-02-03T07:06:24.000Z,29
2018-02-03T07:07:24.000Z,29
2018-02-03T07:08:24.000Z,29
2018-02-03T07:09:24.000Z,29
2018-02-03T07:10:24.000Z,29
2018-02-03T07:11:24.000Z,29
2018-02-03T07:12:24.000Z,29
2018-02-03T07:13:24.000Z,29
2018-02-03T07:14:24.000Z,29
2018-02-03T07:15:24.000Z,29
2018-02-03T07:16:24.000Z,30
2018-02-03T07:17:24.000Z,29
2018-02-03T07:18:24.000Z,29
2018-02-03T07:19:24.000Z,29
2018-02-03T07:20:24.000Z,29
2018-02-03T07:21:24.000Z,30
2018-02-03T07:23:24.000Z,30
2018-02-03T07:24:24.000Z,30
2018-02-03T07:25:24.000Z,30
2018-02-03T07:26:24.000Z,29
2018-02-03T07:27:24.000Z,30
2018-02-03T07:28:24.000Z,30
2018-02-03T07:29:24.000Z,29
2018-02-03T07:31:24.000Z,29
2018-02-03T07:33:24.000Z,29
2018-02-03T07:35:24.000Z,29
2018-02-03T07:36:24.000Z,30
2018-02-03T07:37:24.000Z,30
2018-02-03T07:38:24.000Z,30
2018-02-03T07:39:24.000Z,30
2018-02-03T07:40:24.000Z,30
2018-02-03T07:41:24.000Z,30
2018-02-03T07:42:24.000Z,30
2018-02-03T07:43:24.000Z,30
2018-02-03T07:44:24.000Z,30
2018-02-03T07:45:24.000Z,29
2018-02-03T07:46:24.000Z,30
2018-02-03T07:47:24.000Z,30
2018-02-03T07:48:24.000Z,29
2018-02-03T07:50:24.000Z,29
2018-02-03T07:51:24.000Z,29
2018-02-03T07:53:24.000Z,29
2018-02-03T07:54:24.000Z,30
2018-02-03T07:55:24.000Z,29
2018-02-03T07:56:24.000Z,29
2018-02-03T07:57:24.000Z,29
2018-02-03T07:58:24.000Z,29
2018-02-03T07:59:24.000Z,29
2018-02-03T08:01:24.000Z,29
2018-02-03T08:02:24.000Z,30
2018-02-03T08:03:24.000Z,30
2018-02-03T08:04:24.000Z,29
2018-02-03T08:06:24.000Z,29
2018-02-03T08:07:24.000Z,30
2018-02-03T08:09:24.000Z,30
2018-02-03T08:10:24.000Z,30
2018-02-03T08:11:24.000Z,30
2018-02-03T08:12:24.000Z,30
2018-02-03T08:13:24.000Z,30
2018-02-03T08:14:24.000Z,30
2018-02-03T08:15:24.000Z,30
2018-02-03T08:16:24.000Z,30
2018-02-03T08:17:24.000Z,29
2018-02-03T08:18:24.000Z,30
2018-02-03T08:19:24.000Z,29
2018-02-03T08:20:24.000Z,30
2018-02-03T08:22:24.000Z,29
2018-02-03T08:23:24.000Z,30
2018-02-03T08:24:24.000Z,29
2018-02-03T08:25:24.000Z,30
2018-02-03T08:26:24.000Z,29
2018-02-03T08:27:24.000Z,30
2018-02-03T08:28:24.000Z,29
2018-02-03T08:29:24.000Z,30
2018-02-03T08:30:24.000Z,30
2018-02-03T08:32:24.000Z,29
2018-02-03T08:33:24.000Z,30
2018-02-03T08:34:24.000Z,29
2018-02-03T08:35:24.000Z,29
2018-02-03T08:36:24.000Z,29
2018-02-03T08:37:24.000Z,29
2018-02-03T08:38:24.000Z,30
2018-02-03T08:39:24.000Z,29
2018-02-03T08:40:24.000Z,29
2018-02-03T08:41:24.000Z,29
2018-02-03T08:43:24.000Z,29
2018-02-03T08:44:24.000Z,29
2018-02-03T08:45:24.000Z,29
2018-02-03T08:46:24.000Z,29
2018-02-03T08:47:24.000Z,29
2018-02-03T08:48:24.000Z,29
2018-02-03T08:49:24.000Z,29
2018-02-03T08:50:24.000Z,29
2018-02-03T08:51:24.000Z,29
2018-02-03T08:52:24.000Z,29
2018-02-03T08:53:24.000Z,29
2018-02-03T08:54:24.000Z,29
2018-02-03T08:55:24.000Z,29
2018-02-03T08:56:24.000Z,29
2018-02-03T08:57:24.000Z,29
2018-02-03T08:58:24.000Z,29
2018-02-03T08:59:24.000Z,29
2018-02-03T09:00:24.000Z,29
2018-02-03T09:02:24.000Z,29
2018-02-03T09:03:24.000Z,29
2018-02-03T09:04:24.000Z,29
2018-02-03T09:05:24.000Z,29
2018-02-03T09:07:24.000Z,29
2018-02-03T09:08:24.000Z,29
2018-02-03T09:09:24.000Z,29
2018-02-03T09:10:25.000Z,29
2018-02-03T09:11:25.000Z,29
2018-02-03T09:12:25.000Z,29
2018-02-03T09:13:25.000Z,29
2018-02-03T09:14:25.000Z,29
2018-02-03T09:16:25.000Z,29
2018-02-03T09:17:25.000Z,29
2018-02-03T09:19:25.000Z,29
2018-02-03T09:20:25.000Z,29
2018-02-03T09:21:25.000Z,29
2018-02-03T09:22:25.000Z,29
2018-02-03T09:23:25.000Z,29
2018-02-03T09:24:25.000Z,29
2018-02-03T09:25:25.000Z,29
2018-02-03T09:26:25.000Z,29
2018-02-03T09:27:25.000Z,29
2018-02-03T09:28:25.000Z,29
2018-02-03T09:29:25.000Z,29
2018-02-03T09:30:25.000Z,29
2018-02-03T09:31:25.000Z,29
2018-02-03T09:33:25.000Z,29
2018-02-03T09:34:25.000Z,29
2018-02-03T09:35:25.000Z,29
2018-02-03T09:36:25.000Z,29
2018-02-03T09:37:25.000Z,29
2018-02-03T09:38:25.000Z,29
2018-02-03T09:39:25.000Z,29
2018-02-03T09:41:25.000Z,29
2018-02-03T09:42:25.000Z,29
2018-02-03T09:43:25.000Z,29
2018-02-03T09:44:25.000Z,29
2018-02-03T09:45:25.000Z,29
2018-02-03T09:46:25.000Z,29
2018-02-03T09:47:25.000Z,29
2018-02-03T09:48:25.000Z,29
2018-02-03T09:50:25.000Z,29
2018-02-03T09:51:25.000Z,29
2018-02-03T09:52:25.000Z,29
2018-02-03T09:53:25.000Z,29
2018-02-03T09:54:25.000Z,29
2018-02-03T09:55:25.000Z,29
2018-02-03T09:56:25.000Z,29
2018-02-03T09:57:25.000Z,29
2018-02-03T09:58:25.000Z,29
2018-02-03T09:59:25.000Z,29
2018-02-03T10:00:25.000Z,29
2018-02-03T10:01:25.000Z,29
2018-02-03T10:02:25.000Z,29
2018-02-03T10:04:25.000Z,29
2018-02-03T10:05:25.000Z,29
2018-02-03T10:07:25.000Z,29
2018-02-03T10:08:25.000Z,29
2018-02-03T10:10:25.000Z,29
2018-02-03T10:11:25.000Z,29
2018-02-03T10:12:25.000Z,29
2018-02-03T10:13:25.000Z,29
2018-02-03T10:14:25.000Z,29
2018-02-03T10:16:25.000Z,29
2018-02-03T10:17:25.000Z,29
2018-02-03T10:19:25.000Z,29
2018-02-03T10:20:25.000Z,29
2018-02-03T10:21:25.000Z,29
2018-02-03T10:22:25.000Z,29
2018-02-03T10:23:25.000Z,29
2018-02-03T10:24:25.000Z,29
2018-02-03T10:25:25.000Z,29
2018-02-03T10:26:25.000Z,29
2018-02-03T10:27:25.000Z,29
2018-02-03T10:28:25.000Z,29
2018-02-03T10:29:25.000Z,29
2018-02-03T10:30:25.000Z,29
2018-02-03T10:31:25.000Z,29
2018-02-03T10:32:25.000Z,29
2018-02-03T10:33:25.000Z,29
2018-02-03T10:34:25.000Z,28
2018-02-03T10:36:25.000Z,28
2018-02-03T10:37:25.000Z,28
2018-02-03T10:38:25.000Z,28
2018-02-03T10:39:25.000Z,29
2018-02-03T10:40:25.000Z,29
2018-02-03T10:41:25.000Z,29
2018-02-03T10:42:25.000Z,29
2018-02-03T10:43:25.000Z,29
2018-02-03T10:44:25.000Z,29
2018-02-03T10:45:25.000Z,29
2018-02-03T10:46:25.000Z,28
2018-02-03T10:47:25.000Z,28
2018-02-03T10:48:25.000Z,28
2018-02-03T10:49:25.000Z,28
2018-02-03T10:50:25.000Z,28
2018-02-03T10:51:25.000Z,28
2018-02-03T10:52:25.000Z,28
2018-02-03T10:53:25.000Z,28
2018-02-03T10:54:25.000Z,28
2018-02-03T10:55:25.000Z,28
2018-02-03T10:56:25.000Z,28
2018-02-03T10:57:25.000Z,28
2018-02-03T10:58:25.000Z,28
2018-02-03T10:59:25.000Z,28
2018-02-03T11:00:25.000Z,28
2018-02-03T11:01:25.000Z,28
2018-02-03T11:02:25.000Z,28
2018-02-03T11:03:25.000Z,28
2018-02-03T11:04:25.000Z,28
2018-02-03T11:05:25.000Z,28
2018-02-03T11:06:25.000Z,28
2018-02-03T11:07:25.000Z,28
2018-02-03T11:08:25.000Z,28
2018-02-03T11:09:25.000Z,28
2018-02-03T11:10:25.000Z,28
2018-02-03T11:11:25.000Z,28
2018-02-03T11:12:25.000Z,28
2018-02-03T11:14:25.000Z,28
2018-02-03T11:15:25.000Z,28
2018-02-03T11:16:25.000Z,28
2018-02-03T11:17:25.000Z,28
2018-02-03T11:18:24.000Z,28
2018-02-03T11:19:24.000Z,28
2018-02-03T11:20:24.000Z,28
2018-02-03T11:21:24.000Z,28
2018-02-03T11:22:24.000Z,28
2018-02-03T11:23:24.000Z,28
2018-02-03T11:24:24.000Z,27
2018-02-03T11:25:24.000Z,27
2018-02-03T11:26:24.000Z,27
2018-02-03T11:27:24.000Z,27
2018-02-03T11:28:24.000Z,27
2018-02-03T11:29:24.000Z,27
2018-02-03T11:30:24.000Z,27
2018-02-03T11:31:24.000Z,27
2018-02-03T11:32:24.000Z,27
2018-02-03T11:33:24.000Z,27
2018-02-03T11:34:24.000Z,27
2018-02-03T11:36:24.000Z,27
2018-02-03T11:37:24.000Z,27
2018-02-03T11:38:24.000Z,27
2018-02-03T11:39:24.000Z,27
2018-02-03T11:40:24.000Z,27
2018-02-03T11:41:24.000Z,27
2018-02-03T11:42:24.000Z,27
2018-02-03T11:43:24.000Z,27
2018-02-03T11:44:24.000Z,27
2018-02-03T11:46:24.000Z,27
2018-02-03T11:47:24.000Z,27
2018-02-03T11:48:24.000Z,26
2018-02-03T11:49:24.000Z,26
2018-02-03T11:50:24.000Z,26
2018-02-03T11:51:24.000Z,25
2018-02-03T11:52:24.000Z,25
2018-02-03T11:53:24.000Z,25
2018-02-03T11:54:24.000Z,25
2018-02-03T11:55:24.000Z,24
2018-02-03T11:56:24.000Z,24
2018-02-03T11:57:24.000Z,23
2018-02-03T11:58:24.000Z,23
2018-02-03T11:59:24.000Z,23
2018-02-03T12:01:24.000Z,24
2018-02-03T12:02:24.000Z,24
2018-02-03T12:03:24.000Z,24
2018-02-03T12:04:24.000Z,24
2018-02-03T12:05:24.000Z,24
2018-02-03T12:07:24.000Z,24
2018-02-03T12:08:24.000Z,24
2018-02-03T12:09:24.000Z,24
2018-02-03T12:10:24.000Z,24
2018-02-03T12:11:24.000Z,24
2018-02-03T12:12:24.000Z,24
2018-02-03T12:13:24.000Z,24
2018-02-03T12:14:24.000Z,24
2018-02-03T12:15:24.000Z,24
2018-02-03T12:16:24.000Z,24
2018-02-03T12:17:24.000Z,24
2018-02-03T12:18:24.000Z,24
2018-02-03T12:19:24.000Z,24
2018-02-03T12:20:24.000Z,24
2018-02-03T12:21:24.000Z,24
2018-02-03T12:22:24.000Z,24
2018-02-03T12:23:24.000Z,24
2018-02-03T12:24:24.000Z,24
2018-02-03T12:25:24.000Z,24
2018-02-03T12:26:24.000Z,24
2018-02-03T12:27:24.000Z,24
2018-02-03T12:28:24.000Z,24
2018-02-03T12:29:24.000Z,24
2018-02-03T12:30:24.000Z,24
2018-02-03T12:31:24.000Z,24
2018-02-03T12:32:24.000Z,24
2018-02-03T12:33:24.000Z,24
2018-02-03T12:34:24.000Z,24
2018-02-03T12:35:24.000Z,24
2018-02-03T12:36:24.000Z,24
2018-02-03T12:37:24.000Z,24
2018-02-03T12:38:24.000Z,24
2018-02-03T12:39:24.000Z,24
2018-02-03T12:40:24.000Z,24
2018-02-03T12:41:24.000Z,24
2018-02-03T12:42:24.000Z,24
2018-02-03T12:43:24.000Z,24
2018-02-03T12:44:24.000Z,24
2018-02-03T12:45:24.000Z,24
2018-02-03T12:46:24.000Z,24
2018-02-03T12:47:24.000Z,24
2018-02-03T12:48:24.000Z,24
2018-02-03T12:49:24.000Z,24
2018-02-03T12:50:24.000Z,24
2018-02-03T12:51:24.000Z,24
2018-02-03T12:52:24.000Z,24
2018-02-03T12:54:24.000Z,25
2018-02-03T12:55:24.000Z,25
2018-02-03T12:56:24.000Z,24
2018-02-03T12:57:24.000Z,24
2018-02-03T12:58:24.000Z,24
2018-02-03T12:59:24.000Z,24
2018-02-03T13:00:24.000Z,24
2018-02-03T13:01:24.000Z,24
2018-02-03T13:02:24.000Z,24
2018-02-03T13:03:24.000Z,24
2018-02-03T13:04:24.000Z,24
2018-02-03T13:05:24.000Z,24
2018-02-03T13:06:24.000Z,24
2018-02-03T13:07:24.000Z,25
2018-02-03T13:08:24.000Z,25
2018-02-03T13:09:24.000Z,25
2018-02-03T13:10:24.000Z,25
2018-02-03T13:11:24.000Z,25
2018-02-03T13:12:24.000Z,25
2018-02-03T13:13:24.000Z,25
2018-02-03T13:14:24.000Z,25
2018-02-03T13:16:24.000Z,25
2018-02-03T13:17:24.000Z,26
2018-02-03T13:18:24.000Z,26
2018-02-03T13:19:24.000Z,26
2018-02-03T13:20:24.000Z,26
2018-02-03T13:22:24.000Z,26
2018-02-03T13:23:24.000Z,26
2018-02-03T13:24:24.000Z,26
2018-02-03T13:25:24.000Z,26
2018-02-03T13:26:25.000Z,26
2018-02-03T13:27:25.000Z,26
2018-02-03T13:28:25.000Z,27
2018-02-03T13:29:25.000Z,27
2018-02-03T13:30:25.000Z,27
2018-02-03T13:31:25.000Z,27
2018-02-03T13:32:25.000Z,27
2018-02-03T13:34:25.000Z,27
2018-02-03T13:35:25.000Z,27
2018-02-03T13:36:25.000Z,27
2018-02-03T13:37:25.000Z,27
2018-02-03T13:38:25.000Z,27
2018-02-03T13:40:25.000Z,27
2018-02-03T13:41:25.000Z,27
2018-02-03T13:42:25.000Z,27
2018-02-03T13:43:25.000Z,27
2018-02-03T13:44:25.000Z,27
2018-02-03T13:45:25.000Z,27
2018-02-03T13:46:25.000Z,27
2018-02-03T13:47:25.000Z,27
2018-02-03T13:48:25.000Z,27
2018-02-03T13:49:25.000Z,27
2018-02-03T13:50:25.000Z,27
2018-02-03T13:51:25.000Z,27
2018-02-03T13:52:25.000Z,27
2018-02-03T13:53:25.000Z,27
2018-02-03T13:54:25.000Z,27
2018-02-03T13:55:25.000Z,27
2018-02-03T13:56:25.000Z,27
2018-02-03T13:57:25.000Z,27
2018-02-03T13:59:25.000Z,27
2018-02-03T14:00:25.000Z,27
2018-02-03T14:01:25.000Z,27
2018-02-03T14:02:25.000Z,27
2018-02-03T14:04:25.000Z,27
2018-02-03T14:05:25.000Z,27
2018-02-03T14:07:25.000Z,26
2018-02-03T14:08:25.000Z,26
2018-02-03T14:09:25.000Z,26
2018-02-03T14:10:25.000Z,26
2018-02-03T14:11:25.000Z,26
2018-02-03T14:12:25.000Z,26
2018-02-03T14:13:25.000Z,26
2018-02-03T14:14:25.000Z,26
2018-02-03T14:15:25.000Z,26
2018-02-03T14:16:25.000Z,26
2018-02-03T14:17:25.000Z,27
2018-02-03T14:18:25.000Z,26
2018-02-03T14:19:25.000Z,26
2018-02-03T14:20:25.000Z,26
2018-02-03T14:21:25.000Z,26
2018-02-03T14:22:25.000Z,26
2018-02-03T14:23:25.000Z,26
2018-02-03T14:24:25.000Z,27
2018-02-03T14:25:25.000Z,26
2018-02-03T14:26:25.000Z,26
2018-02-03T14:27:25.000Z,27
2018-02-03T14:29:25.000Z,27
2018-02-03T14:30:24.000Z,27
2018-02-03T14:31:24.000Z,27
2018-02-03T14:32:24.000Z,27
2018-02-03T14:33:24.000Z,27
2018-02-03T14:34:24.000Z,27
2018-02-03T14:35:24.000Z,27
2018-02-03T14:36:24.000Z,27
2018-02-03T14:37:24.000Z,27
2018-02-03T14:38:24.000Z,27
2018-02-03T14:39:24.000Z,27
2018-02-03T14:41:24.000Z,27
2018-02-03T14:42:24.000Z,27
2018-02-03T14:44:24.000Z,27
2018-02-03T14:45:24.000Z,27
2018-02-03T14:46:24.000Z,27
2018-02-03T14:47:24.000Z,27
2018-02-03T14:48:24.000Z,27
2018-02-03T14:49:24.000Z,27
2018-02-03T14:50:24.000Z,27
2018-02-03T14:51:24.000Z,27
2018-02-03T14:52:24.000Z,27
2018-02-03T14:54:24.000Z,27
2018-02-03T14:55:24.000Z,27
2018-02-03T14:56:24.000Z,27
2018-02-03T14:57:24.000Z,27
2018-02-03T14:58:24.000Z,27
2018-02-03T15:00:24.000Z,27
2018-02-03T15:01:24.000Z,27
2018-02-03T15:02:24.000Z,27
2018-02-03T15:03:24.000Z,27
2018-02-03T15:04:24.000Z,28
2018-02-03T15:05:24.000Z,27
2018-02-03T15:41:59.000Z,30
2018-02-03T15:42:59.000Z,30
2018-02-03T15:43:59.000Z,30
2018-02-03T15:45:59.000Z,30
2018-02-03T15:46:59.000Z,30
2018-02-03T15:47:59.000Z,30
2018-02-03T15:48:59.000Z,30
2018-02-03T15:49:59.000Z,30
2018-02-03T15:50:59.000Z,30
2018-02-03T15:51:59.000Z,29
2018-02-03T15:52:59.000Z,30
2018-02-03T15:53:59.000Z,29
2018-02-03T15:55:59.000Z,29
2018-02-03T15:56:59.000Z,29
2018-02-03T15:57:59.000Z,29
2018-02-03T15:58:59.000Z,29
2018-02-03T15:59:59.000Z,29
2018-02-03T16:00:59.000Z,29
2018-02-03T16:01:59.000Z,29
2018-02-03T16:02:59.000Z,29
2018-02-03T16:03:59.000Z,29
2018-02-03T16:04:59.000Z,29
2018-02-03T16:06:59.000Z,29
2018-02-03T16:07:59.000Z,29
2018-02-03T16:08:59.000Z,29
2018-02-03T16:09:59.000Z,29
2018-02-03T16:10:59.000Z,29
2018-02-03T16:11:59.000Z,29
2018-02-03T16:12:59.000Z,29
2018-02-03T16:13:59.000Z,29
2018-02-03T16:14:59.000Z,29
2018-02-03T16:15:59.000Z,29
2018-02-03T16:16:59.000Z,29
2018-02-03T16:17:59.000Z,29
2018-02-03T16:18:59.000Z,29
2018-02-03T16:20:59.000Z,29
2018-02-03T16:21:59.000Z,29
2018-02-03T16:23:59.000Z,29
2018-02-03T16:24:59.000Z,29
2018-02-03T16:25:59.000Z,29
2018-02-03T16:26:59.000Z,29
2018-02-03T16:27:59.000Z,29
2018-02-03T16:29:59.000Z,29
2018-02-03T16:30:59.000Z,29
2018-02-03T16:31:59.000Z,29
2018-02-03T16:32:59.000Z,29
2018-02-03T16:33:59.000Z,29
2018-02-03T16:34:59.000Z,29
2018-02-03T16:35:59.000Z,29
2018-02-03T16:36:59.000Z,29
2018-02-03T16:38:59.000Z,29
2018-02-03T16:39:59.000Z,29
2018-02-03T16:40:59.000Z,29
2018-02-03T16:41:59.000Z,29
2018-02-03T16:42:59.000Z,29
2018-02-03T16:43:59.000Z,29
2018-02-03T16:44:59.000Z,29
2018-02-03T16:45:59.000Z,29
2018-02-03T16:46:59.000Z,29
2018-02-03T16:47:59.000Z,29
2018-02-03T16:49:59.000Z,29
2018-02-03T16:51:59.000Z,29
2018-02-03T16:52:59.000Z,29
2018-02-03T16:54:59.000Z,29
2018-02-03T16:55:59.000Z,29
2018-02-03T16:56:59.000Z,29
2018-02-03T16:57:59.000Z,29